Time;durP1;ratioP1;P1;durP2;ratioP2;P2;SDS_P1;SDS_P2;PMS_P1;PMS_P2;Temp;Humidity;BMP_temperature;BMP_pressure;BME280_temperature;BME280_humidity;BME280_pressure;Samples;Min_cycle;Max_cycle;Signal;HPM_P1;HPM_P2
2021/07/07 00:00:03;;;;;;;2.88;1.55;;;18.10;99.90;;;;;;5059146;28;20171;-73
2021/07/07 00:02:29;;;;;;;2.95;1.50;;;18.00;99.90;;;;;;5053660;28;20192;-73
2021/07/07 00:04:55;;;;;;;3.67;1.40;;;17.90;99.90;;;;;;5070434;28;20180;-73
2021/07/07 00:07:21;;;;;;;3.60;1.30;;;17.80;99.90;;;;;;5054364;28;20212;-73
2021/07/07 00:09:48;;;;;;;11.20;4.13;;;17.80;99.90;;;;;;5064879;28;20634;-72
2021/07/07 00:12:14;;;;;;;2.67;1.20;;;17.70;99.90;;;;;;5066418;28;20193;-73
2021/07/07 00:14:40;;;;;;;5.20;1.00;;;17.60;99.90;;;;;;5065801;28;20179;-72
2021/07/07 00:17:06;;;;;;;3.53;1.00;;;17.60;99.90;;;;;;5053710;28;20193;-70
2021/07/07 00:19:32;;;;;;;4.05;1.20;;;17.60;99.90;;;;;;5065336;28;20178;-70
2021/07/07 00:21:59;;;;;;;1.88;0.77;;;17.50;99.90;;;;;;5067346;28;20510;-70
2021/07/07 00:24:26;;;;;;;7.63;1.17;;;17.50;99.90;;;;;;5060673;28;20188;-71
2021/07/07 00:26:52;;;;;;;4.93;1.20;;;17.40;99.90;;;;;;5035595;28;20213;-71
2021/07/07 00:29:18;;;;;;;5.72;1.10;;;17.40;99.90;;;;;;5067004;28;20173;-68
2021/07/07 00:31:44;;;;;;;10.82;1.40;;;17.30;99.90;;;;;;5064721;28;20182;-69
2021/07/07 00:34:10;;;;;;;2.67;1.20;;;17.30;99.90;;;;;;5070330;28;20174;-70
2021/07/07 00:36:36;;;;;;;8.35;1.25;;;17.30;99.90;;;;;;5065910;28;20190;-70
2021/07/07 00:39:03;;;;;;;2.63;1.00;;;17.20;99.90;;;;;;5066114;28;20170;-72
2021/07/07 00:41:30;;;;;;;4.47;1.30;;;17.20;99.90;;;;;;5064015;28;20224;-70
2021/07/07 00:43:56;;;;;;;11.23;2.10;;;17.20;99.90;;;;;;5063312;28;20181;-71
2021/07/07 00:46:22;;;;;;;9.23;1.38;;;17.20;99.90;;;;;;5058668;28;20225;-71
2021/07/07 00:48:48;;;;;;;9.35;1.80;;;17.10;99.90;;;;;;5063295;28;20174;-70
2021/07/07 00:51:14;;;;;;;7.43;1.40;;;17.10;99.90;;;;;;5066898;28;20182;-69
2021/07/07 00:53:41;;;;;;;14.18;1.30;;;17.10;99.90;;;;;;5067534;28;20185;-69
2021/07/07 00:56:08;;;;;;;8.85;1.60;;;17.10;99.90;;;;;;5069489;28;20170;-70
2021/07/07 00:58:34;;;;;;;8.43;1.27;;;17.10;99.90;;;;;;5065309;28;20648;-70
2021/07/07 01:01:02;;;;;;;13.10;1.48;;;17.10;99.90;;;;;;5064308;28;20182;-71
2021/07/07 01:03:28;;;;;;;11.20;3.93;;;17.10;99.90;;;;;;5057873;28;20166;-71
2021/07/07 01:05:54;;;;;;;10.73;2.35;;;17.10;99.90;;;;;;5066173;28;20206;-69
2021/07/07 01:08:20;;;;;;;14.80;1.80;;;17.10;99.90;;;;;;5069149;28;20185;-70
2021/07/07 01:10:46;;;;;;;15.63;1.70;;;17.10;99.90;;;;;;5055910;28;20174;-70
2021/07/07 01:13:13;;;;;;;16.42;1.95;;;17.10;99.90;;;;;;5069600;28;20192;-70
2021/07/07 01:15:41;;;;;;;15.98;2.55;;;17.10;99.90;;;;;;5064054;28;20179;-71
2021/07/07 01:18:07;;;;;;;16.90;2.00;;;17.10;99.90;;;;;;5068208;28;20174;-70
2021/07/07 01:20:33;;;;;;;10.65;2.03;;;17.00;99.90;;;;;;5068768;28;20182;-71
2021/07/07 01:23:00;;;;;;;27.55;2.92;;;17.00;99.90;;;;;;5055489;28;20630;-71
2021/07/07 01:25:26;;;;;;;19.63;2.58;;;17.00;99.90;;;;;;5072019;28;20186;-70
2021/07/07 01:27:53;;;;;;;21.65;3.20;;;17.00;99.90;;;;;;5064824;28;20227;-71
2021/07/07 01:30:21;;;;;;;16.45;2.65;;;17.00;99.90;;;;;;5054037;28;20178;-70
2021/07/07 01:32:47;;;;;;;17.55;3.03;;;17.00;99.90;;;;;;5057694;28;20170;-70
2021/07/07 01:35:14;;;;;;;16.60;2.45;;;17.00;99.90;;;;;;5064298;28;20171;-70
2021/07/07 01:37:40;;;;;;;15.18;2.35;;;17.00;99.90;;;;;;5060844;28;20178;-72
2021/07/07 01:40:07;;;;;;;15.00;2.10;;;16.90;99.90;;;;;;5055540;28;20210;-71
2021/07/07 01:42:33;;;;;;;10.85;1.95;;;16.90;99.90;;;;;;5065452;28;20564;-71
2021/07/07 01:44:59;;;;;;;10.18;2.15;;;16.90;99.90;;;;;;5065709;28;20178;-71
2021/07/07 01:47:25;;;;;;;17.80;2.40;;;16.90;99.90;;;;;;5059233;28;20580;-71
2021/07/07 01:49:51;;;;;;;21.65;2.88;;;16.90;99.90;;;;;;5065420;28;20182;-71
2021/07/07 01:52:17;;;;;;;17.63;1.92;;;17.00;99.90;;;;;;5062861;28;20228;-71
2021/07/07 01:54:43;;;;;;;17.85;2.35;;;16.90;99.90;;;;;;5067925;28;20673;-70
2021/07/07 01:57:09;;;;;;;12.27;2.33;;;16.90;99.90;;;;;;5060647;28;20187;-71
2021/07/07 01:59:35;;;;;;;14.77;2.95;;;16.90;99.90;;;;;;5057027;28;20187;-71
2021/07/07 02:02:02;;;;;;;19.23;2.90;;;16.90;99.90;;;;;;5062337;28;20193;-70
2021/07/07 02:04:28;;;;;;;10.68;2.63;;;16.90;99.90;;;;;;5067303;28;20189;-71
2021/07/07 02:06:54;;;;;;;14.35;2.70;;;16.90;99.90;;;;;;5072535;28;20220;-71
2021/07/07 02:09:20;;;;;;;10.25;1.90;;;16.90;99.90;;;;;;5066584;28;20515;-71
2021/07/07 02:11:47;;;;;;;11.43;2.05;;;16.90;99.90;;;;;;5056965;28;20193;-71
2021/07/07 02:14:15;;;;;;;9.98;2.45;;;16.90;99.90;;;;;;5068385;28;20197;-71
2021/07/07 02:16:41;;;;;;;13.75;2.30;;;16.90;99.90;;;;;;5071713;28;20666;-72
2021/07/07 02:19:07;;;;;;;12.13;2.33;;;16.90;99.90;;;;;;5068345;28;20181;-69
2021/07/07 02:21:33;;;;;;;17.83;2.45;;;16.90;99.90;;;;;;5071317;28;20541;-72
2021/07/07 02:23:59;;;;;;;15.40;2.17;;;16.90;99.90;;;;;;5068419;28;20174;-70
2021/07/07 02:26:25;;;;;;;14.50;2.40;;;16.90;99.90;;;;;;5061147;28;20194;-70
2021/07/07 02:28:51;;;;;;;12.20;2.63;;;16.80;99.90;;;;;;5071691;28;20201;-70
2021/07/07 02:31:17;;;;;;;24.88;2.85;;;16.80;99.90;;;;;;5063856;28;20170;-71
2021/07/07 02:33:43;;;;;;;18.27;2.33;;;16.80;99.90;;;;;;5066595;28;20174;-70
2021/07/07 02:36:10;;;;;;;18.83;2.83;;;16.80;99.90;;;;;;5067099;28;20182;-70
2021/07/07 02:38:36;;;;;;;18.50;2.63;;;16.70;99.90;;;;;;5054849;28;20186;-70
2021/07/07 02:41:02;;;;;;;17.17;3.40;;;16.70;99.90;;;;;;5053519;28;20224;-69
2021/07/07 02:43:28;;;;;;;14.05;2.70;;;16.70;99.90;;;;;;5069245;28;20657;-70
2021/07/07 02:45:54;;;;;;;11.63;2.72;;;16.70;99.90;;;;;;5067339;28;20198;-71
2021/07/07 02:48:20;;;;;;;13.27;3.15;;;16.60;99.90;;;;;;5064613;28;20567;-70
2021/07/07 02:50:46;;;;;;;21.08;3.58;;;16.60;99.90;;;;;;5068129;28;20193;-71
2021/07/07 02:53:13;;;;;;;21.05;2.63;;;16.60;99.90;;;;;;5065510;28;20178;-71
2021/07/07 02:55:40;;;;;;;12.85;2.63;;;16.60;99.90;;;;;;5069091;28;20178;-70
2021/07/07 02:58:06;;;;;;;22.73;4.93;;;16.60;99.90;;;;;;5071980;28;20178;-71
2021/07/07 03:00:40;;;;;;;11.63;2.40;;;16.60;99.90;;;;;;5061466;28;20178;-69
2021/07/07 03:03:07;;;;;;;13.73;2.55;;;16.70;99.90;;;;;;5052702;28;20166;-71
2021/07/07 03:05:40;;;;;;;11.18;2.47;;;16.70;99.90;;;;;;5066437;28;20208;-70
2021/07/07 03:08:09;;;;;;;17.95;2.88;;;16.70;99.90;;;;;;5055140;28;20198;-70
2021/07/07 03:10:35;;;;;;;16.75;3.10;;;16.70;99.90;;;;;;5052986;28;20173;-70
2021/07/07 03:13:01;;;;;;;12.38;3.83;;;16.70;99.90;;;;;;5058516;28;20217;-72
2021/07/07 03:15:27;;;;;;;16.48;3.28;;;16.70;99.90;;;;;;5054955;28;20189;-71
2021/07/07 03:17:54;;;;;;;18.15;2.88;;;16.70;99.90;;;;;;5068202;28;20182;-70
2021/07/07 03:20:20;;;;;;;14.00;2.88;;;16.70;99.90;;;;;;5063979;28;20173;-70
2021/07/07 03:22:46;;;;;;;14.27;2.92;;;16.70;99.90;;;;;;5071353;28;20185;-71
2021/07/07 03:25:13;;;;;;;15.43;3.58;;;16.70;99.90;;;;;;5070516;28;20174;-70
2021/07/07 03:27:39;;;;;;;10.25;2.42;;;16.80;99.90;;;;;;5064728;28;20210;-72
2021/07/07 03:30:05;;;;;;;17.77;3.05;;;16.70;99.90;;;;;;5049585;28;20165;-71
2021/07/07 03:32:32;;;;;;;15.10;3.10;;;16.70;99.90;;;;;;5054634;28;20185;-72
2021/07/07 03:34:58;;;;;;;22.90;2.92;;;16.70;99.90;;;;;;5069343;28;20178;-71
2021/07/07 03:37:24;;;;;;;14.20;3.88;;;16.70;99.90;;;;;;5066261;28;20189;-69
2021/07/07 03:39:50;;;;;;;17.17;3.42;;;16.70;99.90;;;;;;5063792;28;20175;-70
2021/07/07 03:42:16;;;;;;;10.65;3.00;;;16.70;99.90;;;;;;5069198;28;20185;-69
2021/07/07 03:44:42;;;;;;;11.65;3.25;;;16.70;99.90;;;;;;5065428;28;20733;-70
2021/07/07 03:47:09;;;;;;;13.35;3.05;;;16.70;99.90;;;;;;5066896;28;20224;-69
2021/07/07 03:49:35;;;;;;;15.77;2.97;;;16.70;99.90;;;;;;5068219;28;20192;-69
2021/07/07 03:52:01;;;;;;;10.55;2.95;;;16.70;99.90;;;;;;5066243;28;20178;-70
2021/07/07 03:54:27;;;;;;;18.45;3.05;;;16.70;99.90;;;;;;5064001;28;20523;-69
2021/07/07 03:56:55;;;;;;;9.57;3.95;;;16.70;99.90;;;;;;5062708;28;20196;-69
2021/07/07 03:59:22;;;;;;;10.55;3.42;;;16.70;99.90;;;;;;5065034;28;20181;-69
2021/07/07 04:01:49;;;;;;;12.73;3.78;;;16.70;99.90;;;;;;5051358;28;20177;-69
2021/07/07 04:04:16;;;;;;;18.77;3.58;;;16.70;99.90;;;;;;5066035;28;20174;-69
2021/07/07 04:06:42;;;;;;;18.65;3.72;;;16.70;99.90;;;;;;5062758;28;20216;-70
2021/07/07 04:09:09;;;;;;;16.63;3.13;;;16.70;99.90;;;;;;5060690;28;20186;-69
2021/07/07 04:11:35;;;;;;;13.65;3.10;;;16.70;99.90;;;;;;5062516;28;20174;-70
2021/07/07 04:14:02;;;;;;;20.20;3.35;;;16.70;99.90;;;;;;5066495;28;20182;-69
2021/07/07 04:16:28;;;;;;;10.75;2.97;;;16.70;99.90;;;;;;5049208;28;20189;-71
2021/07/07 04:18:54;;;;;;;16.65;3.80;;;16.80;99.90;;;;;;5061263;28;20185;-70
2021/07/07 04:21:20;;;;;;;20.85;3.60;;;16.80;99.90;;;;;;5063904;28;20178;-70
2021/07/07 04:23:46;;;;;;;15.07;3.60;;;16.80;99.90;;;;;;5058243;28;20179;-71
2021/07/07 04:26:13;;;;;;;11.77;3.47;;;16.80;99.90;;;;;;5051002;28;20173;-70
2021/07/07 04:28:39;;;;;;;13.88;3.72;;;16.80;99.90;;;;;;5065656;28;20208;-70
2021/07/07 04:31:06;;;;;;;14.82;3.35;;;16.90;99.90;;;;;;5050470;28;20536;-66
2021/07/07 04:33:32;;;;;;;14.38;3.15;;;16.90;99.90;;;;;;5062132;28;20177;-70
2021/07/07 04:35:58;;;;;;;16.00;3.58;;;16.90;99.90;;;;;;5059807;28;20635;-69
2021/07/07 04:38:24;;;;;;;10.80;3.08;;;17.00;99.90;;;;;;5057871;28;20194;-69
2021/07/07 04:40:50;;;;;;;9.48;2.90;;;17.00;99.90;;;;;;5050857;28;20720;-69
2021/07/07 04:43:16;;;;;;;7.57;2.75;;;17.10;99.90;;;;;;5045594;28;20181;-69
2021/07/07 04:45:45;;;;;;;15.52;3.30;;;17.20;99.90;;;;;;5067214;28;20177;-70
2021/07/07 04:48:11;;;;;;;11.15;2.75;;;17.20;99.90;;;;;;5058298;28;20201;-70
2021/07/07 04:50:37;;;;;;;9.13;2.70;;;17.20;99.90;;;;;;5058354;28;20175;-69
2021/07/07 04:53:03;;;;;;;6.88;2.55;;;17.20;99.90;;;;;;5063394;28;20175;-69
2021/07/07 04:55:29;;;;;;;5.80;2.45;;;17.20;99.90;;;;;;5050982;28;20182;-69
2021/07/07 04:57:55;;;;;;;10.52;2.50;;;17.20;99.90;;;;;;5059357;28;20181;-69
2021/07/07 05:00:22;;;;;;;8.93;2.70;;;17.20;99.90;;;;;;5051399;28;20184;-70
2021/07/07 05:02:49;;;;;;;6.95;2.70;;;17.20;99.90;;;;;;5050335;28;20185;-69
2021/07/07 05:05:17;;;;;;;9.32;2.65;;;17.20;99.90;;;;;;5050032;28;20199;-70
2021/07/07 05:07:44;;;;;;;15.40;2.95;;;17.20;99.90;;;;;;5050755;28;20650;-70
2021/07/07 05:10:11;;;;;;;19.90;2.90;;;17.20;99.90;;;;;;5058284;28;20177;-70
2021/07/07 05:12:37;;;;;;;14.13;2.78;;;17.20;99.90;;;;;;5033249;28;20190;-69
2021/07/07 05:15:05;;;;;;;17.52;2.55;;;17.20;99.90;;;;;;5060808;28;20512;-69
2021/07/07 05:17:31;;;;;;;17.85;2.60;;;17.20;99.90;;;;;;5068231;28;20186;-69
2021/07/07 05:19:58;;;;;;;13.23;2.17;;;17.20;99.90;;;;;;5052054;28;20182;-69
2021/07/07 05:22:25;;;;;;;8.65;2.30;;;17.20;99.90;;;;;;5068905;28;20174;-69
2021/07/07 05:24:51;;;;;;;17.42;4.63;;;17.10;99.90;;;;;;5068544;28;20649;-69
2021/07/07 05:27:17;;;;;;;12.93;2.70;;;17.10;99.90;;;;;;5064729;28;20213;-68
2021/07/07 05:29:43;;;;;;;13.70;2.33;;;17.10;99.90;;;;;;5068014;28;20193;-68
2021/07/07 05:32:09;;;;;;;11.90;2.22;;;17.00;99.90;;;;;;5061226;28;20182;-70
2021/07/07 05:34:37;;;;;;;10.98;2.25;;;17.00;99.90;;;;;;5046776;28;20179;-70
2021/07/07 05:37:03;;;;;;;7.88;1.80;;;17.00;99.90;;;;;;5046989;28;20186;-69
2021/07/07 05:39:29;;;;;;;9.23;2.13;;;17.00;99.90;;;;;;5064614;28;20182;-71
2021/07/07 05:41:56;;;;;;;10.63;1.90;;;17.10;99.90;;;;;;5037477;28;20227;-69
2021/07/07 05:44:22;;;;;;;16.98;2.42;;;17.10;99.90;;;;;;5044330;28;20174;-69
2021/07/07 05:46:49;;;;;;;9.82;2.40;;;17.20;99.90;;;;;;5039583;28;20178;-70
2021/07/07 05:49:15;;;;;;;8.73;2.15;;;17.20;99.90;;;;;;5042515;28;20198;-70
2021/07/07 05:51:41;;;;;;;9.75;2.85;;;17.20;99.90;;;;;;5046474;28;20171;-69
2021/07/07 05:54:07;;;;;;;15.20;2.20;;;17.30;99.90;;;;;;5050659;28;20167;-70
2021/07/07 05:56:33;;;;;;;9.55;2.40;;;17.50;99.90;;;;;;5050952;28;20174;-70
2021/07/07 05:58:59;;;;;;;10.85;1.90;;;17.60;99.90;;;;;;5051385;28;20186;-69
2021/07/07 06:01:25;;;;;;;11.77;2.28;;;17.80;99.90;;;;;;5050216;28;20182;-69
2021/07/07 06:03:51;;;;;;;11.50;2.30;;;17.80;99.90;;;;;;5049551;28;20193;-70
2021/07/07 06:06:17;;;;;;;10.85;2.40;;;17.90;99.90;;;;;;5050621;28;20209;-70
2021/07/07 06:08:43;;;;;;;11.15;2.22;;;18.00;99.90;;;;;;5052200;28;20221;-70
2021/07/07 06:11:10;;;;;;;8.35;2.05;;;18.00;99.90;;;;;;5050898;28;20183;-70
2021/07/07 06:13:36;;;;;;;10.90;2.17;;;18.10;99.90;;;;;;5051094;28;20190;-71
2021/07/07 06:16:03;;;;;;;12.73;3.40;;;18.30;99.90;;;;;;5060573;28;20221;-69
2021/07/07 06:18:29;;;;;;;16.40;3.10;;;18.40;99.90;;;;;;5069243;28;20170;-68
2021/07/07 06:20:55;;;;;;;14.05;2.33;;;18.60;99.90;;;;;;5046813;28;20167;-70
2021/07/07 06:23:21;;;;;;;12.90;1.98;;;18.70;99.90;;;;;;5049799;28;20631;-70
2021/07/07 06:25:47;;;;;;;15.70;1.65;;;18.70;99.90;;;;;;5050956;28;20185;-69
2021/07/07 06:28:14;;;;;;;13.07;2.03;;;18.80;99.90;;;;;;5052915;28;20209;-69
2021/07/07 06:30:40;;;;;;;7.70;1.90;;;18.70;99.90;;;;;;5050948;28;20627;-68
2021/07/07 06:33:06;;;;;;;8.77;2.03;;;18.70;99.90;;;;;;5052854;28;20191;-68
2021/07/07 06:35:36;;;;;;;11.02;2.15;;;18.70;99.90;;;;;;5050389;28;20186;-69
2021/07/07 06:38:02;;;;;;;11.80;2.83;;;18.80;99.90;;;;;;5052902;28;20178;-69
2021/07/07 06:40:28;;;;;;;11.13;2.20;;;18.80;99.90;;;;;;5060374;28;20226;-68
2021/07/07 06:42:55;;;;;;;11.45;1.55;;;19.00;99.90;;;;;;5049284;28;20223;-69
2021/07/07 06:45:21;;;;;;;10.65;1.90;;;18.90;99.90;;;;;;5051864;28;20194;-69
2021/07/07 06:47:47;;;;;;;11.63;2.22;;;18.90;99.90;;;;;;5050434;28;20203;-70
2021/07/07 06:50:14;;;;;;;7.88;1.70;;;18.90;99.90;;;;;;5045660;28;20167;-71
2021/07/07 06:52:40;;;;;;;13.05;2.20;;;18.90;99.90;;;;;;5048523;28;20198;-68
2021/07/07 06:55:07;;;;;;;12.82;2.00;;;19.00;99.90;;;;;;5060954;28;20178;-70
2021/07/07 06:57:36;;;;;;;7.97;1.60;;;19.00;99.90;;;;;;5051754;28;20219;-70
2021/07/07 07:00:10;;;;;;;13.93;3.22;;;19.10;99.90;;;;;;5068010;28;20194;-70
2021/07/07 07:02:36;;;;;;;14.77;2.30;;;19.00;99.90;;;;;;5054032;28;20179;-70
2021/07/07 07:05:04;;;;;;;13.13;2.47;;;18.90;99.90;;;;;;5064312;28;20195;-69
2021/07/07 07:07:31;;;;;;;7.05;1.67;;;18.90;99.90;;;;;;5052980;28;20191;-70
2021/07/07 07:09:59;;;;;;;13.38;2.08;;;18.80;99.90;;;;;;5049805;28;20194;-70
2021/07/07 07:12:26;;;;;;;16.55;2.60;;;18.90;99.90;;;;;;5045287;28;20554;-71
2021/07/07 07:14:53;;;;;;;15.70;2.85;;;18.90;99.90;;;;;;5048584;28;20170;-70
2021/07/07 07:17:21;;;;;;;16.13;2.55;;;19.00;99.90;;;;;;5049957;28;20498;-71
2021/07/07 07:19:47;;;;;;;11.48;2.10;;;18.90;99.90;;;;;;5067470;28;20181;-72
2021/07/07 07:22:13;;;;;;;14.73;1.98;;;18.80;99.90;;;;;;5049521;28;20635;-69
2021/07/07 07:24:39;;;;;;;10.82;2.30;;;18.80;99.90;;;;;;5065570;28;20186;-70
2021/07/07 07:27:05;;;;;;;13.30;1.83;;;18.90;99.90;;;;;;5048646;28;20539;-69
2021/07/07 07:29:32;;;;;;;8.75;2.00;;;19.00;99.90;;;;;;5052195;28;20208;-69
2021/07/07 07:31:58;;;;;;;12.35;1.85;;;19.00;99.90;;;;;;5047840;28;20654;-70
2021/07/07 07:34:24;;;;;;;11.88;1.73;;;19.00;99.90;;;;;;5052895;28;20194;-69
2021/07/07 07:36:56;;;;;;;23.60;2.35;;;18.80;99.90;;;;;;5049721;28;20174;-68
2021/07/07 07:39:25;;;;;;;11.30;2.15;;;18.80;99.90;;;;;;5066157;28;21680;-68
2021/07/07 07:41:51;;;;;;;9.50;2.22;;;18.80;99.90;;;;;;5061780;28;20214;-69
2021/07/07 07:44:17;;;;;;;12.75;2.25;;;18.80;99.90;;;;;;5069090;28;20537;-67
2021/07/07 07:46:43;;;;;;;9.73;1.95;;;18.90;99.90;;;;;;5069480;28;20519;-67
2021/07/07 07:49:13;;;;;;;10.18;1.80;;;19.00;99.90;;;;;;5070692;28;20202;-69
2021/07/07 07:51:39;;;;;;;15.52;2.55;;;19.00;99.90;;;;;;5070921;28;20249;-68
2021/07/07 07:54:05;;;;;;;7.43;1.85;;;19.30;99.90;;;;;;5071146;28;20190;-68
2021/07/07 07:56:31;;;;;;;10.98;1.80;;;19.50;99.90;;;;;;5072421;28;20535;-68
2021/07/07 07:58:57;;;;;;;12.35;3.35;;;19.50;99.90;;;;;;5054211;28;20181;-67
2021/07/07 08:01:24;;;;;;;17.73;2.05;;;19.50;99.90;;;;;;5066564;28;20197;-68
2021/07/07 08:03:51;;;;;;;11.85;2.10;;;19.50;99.90;;;;;;5072284;28;20186;-69
2021/07/07 08:06:17;;;;;;;9.00;1.60;;;19.70;99.90;;;;;;5059601;28;20254;-69
2021/07/07 08:08:43;;;;;;;16.33;2.17;;;19.50;99.90;;;;;;5053223;28;20673;-68
2021/07/07 08:11:11;;;;;;;14.05;2.17;;;19.30;99.90;;;;;;5051665;28;20186;-69
2021/07/07 08:13:38;;;;;;;10.93;2.00;;;19.00;99.90;;;;;;5055902;28;20169;-69
2021/07/07 08:16:04;;;;;;;19.42;2.65;;;19.10;99.90;;;;;;5072730;28;20177;-68
2021/07/07 08:18:30;;;;;;;12.73;2.30;;;19.00;99.90;;;;;;5072884;28;20178;-69
2021/07/07 08:20:57;;;;;;;9.50;2.15;;;19.10;99.90;;;;;;5054694;28;20177;-70
2021/07/07 08:23:23;;;;;;;6.88;1.67;;;19.50;99.90;;;;;;5072396;28;20182;-70
2021/07/07 08:25:49;;;;;;;11.07;2.15;;;19.80;99.90;;;;;;5070761;28;20166;-68
2021/07/07 08:28:16;;;;;;;13.43;2.15;;;19.80;99.90;;;;;;5072423;28;20198;-69
2021/07/07 08:30:42;;;;;;;18.45;2.40;;;19.60;99.90;;;;;;5070931;28;20181;-68
2021/07/07 08:33:08;;;;;;;9.77;2.08;;;19.50;99.90;;;;;;5054574;28;20197;-69
2021/07/07 08:35:37;;;;;;;12.90;2.60;;;19.60;99.90;;;;;;5072805;28;20614;-70
2021/07/07 08:38:04;;;;;;;10.30;2.13;;;20.00;99.90;;;;;;5072014;28;20178;-69
2021/07/07 08:40:30;;;;;;;12.00;1.85;;;20.50;99.90;;;;;;5071999;28;20225;-70
2021/07/07 08:42:56;;;;;;;18.13;2.25;;;20.40;99.90;;;;;;5071624;28;20181;-69
2021/07/07 08:45:22;;;;;;;14.98;2.67;;;20.30;99.90;;;;;;5072552;28;20535;-69
2021/07/07 08:47:49;;;;;;;10.25;2.45;;;19.80;99.90;;;;;;5072318;28;20547;-68
2021/07/07 08:50:23;;;;;;;11.23;2.20;;;19.70;99.90;;;;;;5072089;28;20186;-68
2021/07/07 08:52:49;;;;;;;13.13;2.10;;;19.90;99.90;;;;;;5071234;28;20602;-68
2021/07/07 08:55:16;;;;;;;12.65;2.63;;;19.80;99.90;;;;;;5063568;28;20196;-72
2021/07/07 08:57:42;;;;;;;14.18;2.17;;;20.70;99.90;;;;;;5049501;28;20648;-71
2021/07/07 09:00:19;;;;;;;14.98;2.20;;;21.10;99.90;;;;;;5069392;28;20589;-71
2021/07/07 09:02:56;;;;;;;12.77;2.47;;;21.10;99.90;;;;;;5065578;28;20189;-71
2021/07/07 09:05:23;;;;;;;17.10;2.83;;;20.50;99.90;;;;;;5068475;28;20193;-71
2021/07/07 09:07:49;;;;;;;19.25;2.10;;;20.00;99.90;;;;;;5071586;28;20205;-72
2021/07/07 09:10:18;;;;;;;19.23;2.90;;;19.60;99.90;;;;;;5071564;28;20201;-69
2021/07/07 09:12:44;;;;;;;19.42;2.05;;;19.80;99.90;;;;;;5070823;28;20178;-71
2021/07/07 09:15:15;;;;;;;12.90;2.25;;;19.90;99.90;;;;;;5060938;28;20666;-70
2021/07/07 09:17:41;;;;;;;13.27;2.42;;;19.90;99.90;;;;;;5067958;28;20163;-70
2021/07/07 09:20:28;;;;;;;12.45;2.60;;;20.40;99.90;;;;;;5070963;28;20170;-70
2021/07/07 09:23:20;;;;;;;18.35;2.45;;;20.20;99.90;;;;;;5069911;28;20189;-71
2021/07/07 09:25:54;;;;;;;13.73;1.95;;;20.00;99.90;;;;;;5073651;28;20200;-71
2021/07/07 09:28:28;;;;;;;13.77;2.15;;;20.20;99.90;;;;;;5075042;28;20194;-71
2021/07/07 09:30:56;;;;;;;14.93;2.20;;;20.30;99.90;;;;;;5075146;28;20166;-71
2021/07/07 09:33:22;;;;;;;15.50;2.25;;;20.10;99.90;;;;;;5072395;28;20174;-73
2021/07/07 09:35:48;;;;;;;15.65;2.53;;;20.10;99.90;;;;;;5038034;28;20187;-73
2021/07/07 09:38:17;;;;;;;9.75;2.00;;;20.10;99.90;;;;;;5074784;28;20177;-71
2021/07/07 09:40:43;;;;;;;13.13;2.15;;;20.20;99.90;;;;;;5072286;28;20214;-72
2021/07/07 09:43:10;;;;;;;11.73;2.05;;;20.40;99.90;;;;;;5074902;28;20166;-74
2021/07/07 09:45:44;;;;;;;15.80;2.38;;;20.70;99.90;;;;;;5074314;28;20189;-72
2021/07/07 09:48:14;;;;;;;10.18;1.88;;;21.10;99.90;;;;;;5074243;28;20194;-71
2021/07/07 09:50:44;;;;;;;7.07;1.90;;;21.10;99.90;;;;;;5057046;28;20178;-72
2021/07/07 09:53:11;;;;;;;9.15;1.63;;;21.20;99.90;;;;;;5072577;28;20178;-73
2021/07/07 09:55:38;;;;;;;9.35;1.90;;;21.10;99.90;;;;;;5054454;28;20186;-70
2021/07/07 09:58:04;;;;;;;7.32;2.03;;;21.60;99.90;;;;;;5074923;28;20523;-73
2021/07/07 10:00:37;;;;;;;8.00;1.70;;;22.00;99.90;;;;;;5074789;28;20661;-72
2021/07/07 10:03:04;;;;;;;8.27;2.20;;;22.00;99.90;;;;;;5054245;28;20186;-73
2021/07/07 10:05:32;;;;;;;7.65;1.50;;;21.90;99.90;;;;;;5071333;28;20197;-71
2021/07/07 10:07:58;;;;;;;12.70;1.60;;;21.60;99.90;;;;;;5057742;28;20174;-72
2021/07/07 10:10:24;;;;;;;11.40;1.98;;;21.30;99.90;;;;;;5072317;28;20560;-71
2021/07/07 10:12:50;;;;;;;10.20;1.63;;;21.00;99.90;;;;;;5074306;28;20185;-69
2021/07/07 10:15:17;;;;;;;8.77;1.90;;;21.10;99.90;;;;;;5073871;28;20490;-70
2021/07/07 10:17:43;;;;;;;7.43;1.73;;;21.30;99.90;;;;;;5074786;28;20174;-71
2021/07/07 10:20:10;;;;;;;11.48;1.80;;;21.50;99.30;;;;;;5068581;28;20181;-71
2021/07/07 10:22:37;;;;;;;8.95;2.05;;;22.30;99.50;;;;;;5065508;28;20202;-72
2021/07/07 10:25:06;;;;;;;7.80;2.00;;;22.70;99.30;;;;;;5073728;28;20181;-70
2021/07/07 10:27:32;;;;;;;11.23;2.10;;;22.10;99.10;;;;;;5074441;28;20227;-71
2021/07/07 10:29:58;;;;;;;11.45;2.08;;;21.70;99.90;;;;;;5056133;28;20212;-71
2021/07/07 10:32:29;;;;;;;16.17;2.45;;;21.30;99.90;;;;;;5072407;28;20185;-75
2021/07/07 10:34:55;;;;;;;8.52;1.83;;;21.10;99.90;;;;;;5065434;28;20174;-71
2021/07/07 10:37:21;;;;;;;12.35;2.58;;;21.00;99.90;;;;;;5073041;28;20166;-73
2021/07/07 10:39:49;;;;;;;19.25;2.17;;;20.70;99.90;;;;;;5073763;28;20508;-71
2021/07/07 10:42:15;;;;;;;9.57;2.03;;;20.40;99.90;;;;;;5073439;28;20167;-71
2021/07/07 10:44:45;;;;;;;10.10;2.10;;;20.90;99.90;;;;;;5070947;28;20178;-74
2021/07/07 10:47:16;;;;;;;12.07;1.80;;;21.50;99.90;;;;;;5070168;28;20202;-71
2021/07/07 10:49:46;;;;;;;10.38;1.70;;;21.70;96.50;;;;;;5072031;28;20193;-71
2021/07/07 10:52:17;;;;;;;5.80;1.75;;;22.20;95.70;;;;;;5074465;28;20181;-71
2021/07/07 10:54:55;;;;;;;10.15;1.95;;;22.60;96.30;;;;;;5037131;28;20175;-71
2021/07/07 10:57:23;;;;;;;11.00;1.95;;;22.10;96.60;;;;;;5054594;28;20155;-72
2021/07/07 10:59:55;;;;;;;9.13;1.80;;;22.30;97.20;;;;;;5052231;28;20191;-70
2021/07/07 11:02:27;;;;;;;13.95;2.30;;;22.50;96.00;;;;;;5054150;28;20186;-73
2021/07/07 11:04:56;;;;;;;6.05;1.73;;;22.00;95.50;;;;;;5064323;28;20210;-70
2021/07/07 11:07:32;;;;;;;17.50;2.13;;;21.60;94.80;;;;;;5073309;28;20178;-72
2021/07/07 11:09:58;;;;;;;11.25;1.95;;;21.70;95.70;;;;;;5069878;28;20276;-72
2021/07/07 11:12:45;;;;;;;8.38;1.40;;;21.70;94.50;;;;;;5073598;28;20166;-71
2021/07/07 11:15:14;;;;;;;7.95;1.70;;;21.40;94.90;;;;;;5031074;28;20209;-73
2021/07/07 11:17:41;;;;;;;17.00;2.97;;;21.40;95.40;;;;;;5072162;28;20178;-70
2021/07/07 11:20:07;;;;;;;11.25;2.03;;;21.80;95.80;;;;;;5052804;28;20178;-71
2021/07/07 11:22:34;;;;;;;9.50;1.77;;;21.70;93.70;;;;;;5072362;28;20174;-71
2021/07/07 11:25:04;;;;;;;7.95;1.95;;;21.90;94.50;;;;;;5060791;28;20178;-72
2021/07/07 11:27:31;;;;;;;15.80;1.83;;;22.30;93.40;;;;;;5060765;28;20178;-70
2021/07/07 11:29:58;;;;;;;6.97;1.80;;;22.70;92.80;;;;;;5070856;28;20221;-72
2021/07/07 11:32:32;;;;;;;23.42;4.10;;;22.90;93.30;;;;;;5073541;28;20174;-73
2021/07/07 11:34:59;;;;;;;10.48;2.35;;;22.50;93.80;;;;;;5055391;28;20656;-74
2021/07/07 11:37:27;;;;;;;14.55;2.42;;;22.00;95.30;;;;;;5069554;28;20181;-73
2021/07/07 11:40:04;;;;;;;9.45;2.15;;;21.80;95.30;;;;;;5054962;28;20210;-72
2021/07/07 11:42:30;;;;;;;11.40;2.10;;;22.00;94.90;;;;;;5072186;28;20154;-71
2021/07/07 11:44:56;;;;;;;10.32;2.10;;;22.00;94.60;;;;;;5065295;28;20178;-72
2021/07/07 11:47:32;;;;;;;13.75;2.00;;;22.10;95.70;;;;;;5066212;28;20182;-72
2021/07/07 11:50:16;;;;;;;16.15;2.83;;;21.70;94.50;;;;;;5069289;28;20193;-70
2021/07/07 11:53:05;;;;;;;10.95;2.45;;;21.40;96.00;;;;;;5070235;28;20185;-70
2021/07/07 11:55:53;;;;;;;12.68;2.25;;;21.70;96.20;;;;;;5052442;28;20197;-73
2021/07/07 11:58:44;;;;;;;10.50;2.42;;;22.30;94.20;;;;;;5070389;28;20187;-72
2021/07/07 12:01:20;;;;;;;8.93;1.95;;;22.20;93.80;;;;;;5071302;28;20174;-71
2021/07/07 12:04:06;;;;;;;9.55;2.35;;;22.00;93.70;;;;;;5069963;28;20189;-69
2021/07/07 12:06:33;;;;;;;13.98;2.95;;;21.70;92.80;;;;;;5070584;28;20232;-72
2021/07/07 12:09:01;;;;;;;15.13;2.30;;;21.40;94.40;;;;;;5070761;28;20688;-69
2021/07/07 12:11:27;;;;;;;13.10;2.38;;;21.30;95.20;;;;;;5071821;28;20177;-71
2021/07/07 12:13:54;;;;;;;4.22;1.92;;;21.90;94.70;;;;;;5070868;28;20281;-70
2021/07/07 12:16:30;;;;;;;16.42;2.78;;;22.20;92.50;;;;;;5052154;28;20568;-69
2021/07/07 12:19:04;;;;;;;122.07;5.63;;;22.10;91.80;;;;;;5053701;28;20204;-72
2021/07/07 12:21:49;;;;;;;11.55;2.08;;;22.30;92.30;;;;;;5072225;28;20166;-71
2021/07/07 12:24:43;;;;;;;6.65;1.83;;;22.60;92.90;;;;;;5070753;28;20178;-70
2021/07/07 12:27:14;;;;;;;13.93;1.85;;;23.10;92.50;;;;;;5071256;28;20186;-70
2021/07/07 12:29:42;;;;;;;14.23;2.10;;;23.30;90.80;;;;;;5072357;28;20220;-72
2021/07/07 12:32:11;;;;;;;8.80;2.03;;;23.00;90.60;;;;;;5070949;28;20173;-71
2021/07/07 12:34:41;;;;;;;14.27;2.45;;;22.80;90.50;;;;;;5071694;28;20201;-70
2021/07/07 12:37:14;;;;;;;12.98;2.70;;;22.70;90.80;;;;;;5067139;28;20188;-72
2021/07/07 12:39:49;;;;;;;16.48;2.33;;;22.60;92.00;;;;;;5072359;28;20173;-71
2021/07/07 12:42:27;;;;;;;8.63;2.40;;;22.80;90.40;;;;;;5072463;28;20177;-67